createdAt,value
2023-03-02T00:02:21.419Z,4.60
2023-03-02T00:08:23.513Z,5.75
2023-03-02T00:14:25.419Z,5.53
2023-03-02T00:20:27.416Z,5.22
2023-03-02T00:26:29.149Z,5.25
2023-03-02T00:32:30.913Z,5.68
2023-03-02T00:38:35.588Z,5.03
2023-03-02T00:50:41.080Z,4.57
2023-03-02T00:56:43.238Z,4.83
2023-03-02T01:02:45.073Z,5.90
2023-03-02T01:08:47.231Z,4.32
2023-03-02T01:14:50.837Z,4.50
2023-03-02T01:21:05.406Z,4.93
2023-03-02T01:27:07.294Z,4.82
2023-03-02T01:33:09.125Z,4.82
2023-03-02T01:39:11.468Z,4.55
2023-03-02T01:45:43.852Z,4.63
2023-03-02T01:51:47.743Z,5.05
2023-03-02T01:57:51.321Z,4.50
2023-03-02T02:03:53.124Z,5.10
2023-03-02T02:09:56.717Z,4.95
2023-03-02T02:15:58.818Z,4.82
2023-03-02T02:22:01.159Z,5.45
2023-03-02T02:28:09.173Z,5.03
2023-03-02T02:34:13.996Z,4.63
2023-03-02T02:40:20.848Z,4.55
2023-03-02T02:46:23.595Z,4.68
2023-03-02T02:52:28.127Z,4.78
2023-03-02T02:58:48.274Z,4.72
2023-03-02T03:04:50.536Z,4.90
2023-03-02T03:10:54.641Z,5.10
2023-03-02T03:16:56.660Z,4.55
2023-03-02T03:23:00.527Z,5.93
2023-03-02T03:29:03.122Z,5.33
2023-03-02T03:35:08.665Z,4.95
2023-03-02T03:41:12.881Z,4.80
2023-03-02T03:47:17.724Z,4.80
2023-03-02T03:53:19.535Z,4.47
2023-03-02T03:59:25.080Z,4.97
2023-03-02T04:05:26.960Z,5.55
2023-03-02T04:11:28.992Z,4.25
2023-03-02T04:17:31.917Z,4.70
2023-03-02T04:23:33.679Z,4.32
2023-03-02T04:29:36.320Z,5.30
2023-03-02T04:35:38.386Z,4.85
2023-03-02T04:41:40.419Z,5.20
2023-03-02T04:47:42.936Z,5.80
2023-03-02T04:53:44.784Z,5.50
2023-03-02T04:59:49.620Z,6.50
2023-03-02T05:05:51.467Z,7.35
2023-03-02T05:11:55.282Z,7.18
2023-03-02T05:17:57.658Z,7.47
2023-03-02T05:23:59.600Z,8.80
2023-03-02T05:30:01.624Z,8.75
2023-03-02T05:36:03.815Z,8.93
2023-03-02T05:42:06.091Z,9.50
2023-03-02T05:48:08.320Z,9.82
2023-03-02T05:54:10.285Z,10.38
2023-03-02T06:00:13.822Z,10.18
2023-03-02T06:06:17.357Z,10.40
2023-03-02T06:12:19.908Z,11.02
2023-03-02T06:18:22.407Z,12.60
2023-03-02T06:24:24.501Z,13.48
2023-03-02T06:30:28.011Z,12.98
2023-03-02T06:36:29.936Z,13.55
2023-03-02T06:42:32.313Z,13.70
2023-03-02T06:48:34.471Z,13.95
2023-03-02T06:54:37.742Z,15.13
2023-03-02T07:00:41.067Z,14.50
2023-03-02T07:06:43.511Z,14.57
2023-03-02T07:12:45.542Z,15.38
2023-03-02T07:18:47.655Z,14.73
2023-03-02T07:24:49.558Z,16.95
2023-03-02T07:30:56.170Z,16.30
2023-03-02T07:36:58.150Z,17.27
2023-03-02T07:43:00.340Z,15.82
2023-03-02T07:49:02.520Z,17.70
2023-03-02T07:55:04.584Z,17.33
2023-03-02T08:01:06.583Z,15.45
2023-03-02T08:07:09.416Z,13.95
2023-03-02T08:13:11.358Z,15.18
2023-03-02T08:19:15.607Z,16.17
2023-03-02T08:25:17.763Z,15.30
2023-03-02T08:31:19.553Z,16.02
2023-03-02T08:37:21.408Z,15.07
2023-03-02T08:43:25.538Z,15.43
2023-03-02T08:49:28.812Z,15.70
2023-03-02T08:55:31.318Z,15.88
2023-03-02T09:01:35.704Z,15.73
2023-03-02T09:07:38.738Z,14.80
2023-03-02T09:13:41.552Z,17.70
2023-03-02T09:19:44.678Z,17.13
2023-03-02T09:25:50.390Z,15.25
2023-03-02T09:31:52.653Z,13.15
2023-03-02T09:37:55.779Z,12.23
2023-03-02T09:44:19.550Z,13.05
2023-03-02T09:50:50.850Z,13.67
2023-03-02T09:56:59.159Z,12.93
2023-03-02T10:03:16.978Z,13.57
2023-03-02T10:09:19.821Z,14.25
2023-03-02T10:15:24.792Z,12.57
2023-03-02T10:21:49.509Z,13.80
2023-03-02T10:27:56.265Z,13.90
2023-03-02T10:34:03.612Z,14.15
2023-03-02T10:40:29.958Z,14.60
2023-03-02T10:46:46.681Z,12.57
2023-03-02T10:52:59.995Z,14.30
2023-03-02T10:59:28.608Z,13.98
2023-03-02T11:05:36.430Z,14.52
2023-03-02T11:11:44.669Z,15.82
2023-03-02T11:18:06.876Z,15.38
2023-03-02T11:24:19.218Z,15.38
2023-03-02T11:30:26.428Z,14.60
2023-03-02T11:36:45.449Z,15.48
2023-03-02T11:42:54.004Z,15.25
2023-03-02T11:49:11.680Z,15.07
2023-03-02T11:55:24.648Z,14.80
2023-03-02T12:01:29.409Z,14.30
2023-03-02T12:07:32.500Z,14.68
2023-03-02T12:13:42.720Z,13.88
2023-03-02T12:19:46.730Z,14.60
2023-03-02T12:25:53.861Z,13.83
2023-03-02T12:32:10.625Z,13.75
2023-03-02T12:38:32.834Z,14.25
2023-03-02T12:44:53.053Z,14.48
2023-03-02T12:51:04.541Z,13.60
2023-03-02T12:57:21.115Z,14.27
2023-03-02T13:03:23.592Z,14.65
2023-03-02T13:09:26.082Z,16.10
2023-03-02T13:15:28.330Z,15.90
2023-03-02T13:21:38.386Z,14.98
2023-03-02T13:27:40.469Z,15.00
2023-03-02T13:33:47.917Z,14.48
2023-03-02T13:39:58.442Z,14.77
2023-03-02T13:46:07.456Z,13.95
2023-03-02T13:52:56.628Z,14.20
2023-03-02T13:59:03.808Z,13.25
2023-03-02T14:05:07.175Z,13.82
2023-03-02T14:11:18.166Z,13.02
2023-03-02T14:17:24.277Z,13.95
2023-03-02T14:23:32.153Z,12.95
2023-03-02T14:29:38.264Z,12.02
2023-03-02T14:35:40.370Z,13.60
2023-03-02T14:41:52.951Z,14.77
2023-03-02T14:47:56.325Z,14.40
2023-03-02T14:54:01.133Z,14.32
2023-03-02T15:00:05.439Z,13.90
2023-03-02T15:06:28.176Z,14.35
2023-03-02T15:12:30.322Z,12.85
2023-03-02T15:18:32.164Z,15.95
2023-03-02T15:24:35.147Z,15.50
2023-03-02T15:30:38.027Z,15.32
2023-03-02T15:36:40.116Z,15.05
2023-03-02T15:42:42.293Z,14.77
2023-03-02T15:48:44.438Z,15.07
2023-03-02T15:54:46.571Z,13.77
2023-03-02T16:00:49.739Z,15.60
2023-03-02T16:06:51.979Z,18.30
2023-03-02T16:19:18.901Z,20.15
2023-03-02T16:25:21.730Z,18.60
2023-03-02T16:31:27.572Z,18.90
2023-03-02T16:37:29.558Z,18.55
2023-03-02T16:43:32.368Z,18.02
2023-03-02T16:49:35.539Z,16.98
2023-03-02T16:55:37.774Z,18.35
2023-03-02T17:01:40.140Z,17.17
2023-03-02T17:07:42.767Z,16.77
2023-03-02T17:13:44.941Z,15.35
2023-03-02T17:19:46.865Z,15.43
2023-03-02T17:25:48.978Z,16.52
2023-03-02T17:31:50.951Z,17.65
2023-03-02T17:37:52.942Z,18.52
2023-03-02T17:43:55.352Z,19.08
2023-03-02T17:49:58.621Z,16.50
2023-03-02T17:56:00.807Z,16.20
2023-03-02T18:02:02.976Z,17.08
2023-03-02T18:08:05.112Z,16.75
2023-03-02T18:14:07.355Z,18.08
2023-03-02T18:20:10.513Z,17.58
2023-03-02T18:26:14.076Z,16.25
2023-03-02T18:32:16.177Z,17.65
2023-03-02T18:38:18.219Z,15.18
2023-03-02T18:44:20.376Z,16.92
2023-03-02T18:50:23.004Z,18.27
2023-03-02T18:56:25.068Z,16.77
2023-03-02T19:02:28.622Z,17.38
2023-03-02T19:08:31.209Z,17.25
2023-03-02T19:14:33.261Z,19.73
2023-03-02T19:20:36.334Z,21.55
2023-03-02T19:26:38.443Z,20.27
2023-03-02T19:32:44.602Z,18.95
2023-03-02T19:38:46.584Z,18.75
2023-03-02T19:44:48.577Z,21.13
2023-03-02T19:50:54.969Z,21.15
2023-03-02T19:56:56.970Z,19.00
2023-03-02T20:03:00.026Z,23.10
2023-03-02T20:09:05.774Z,21.40
2023-03-02T20:15:08.219Z,20.75
2023-03-02T20:21:10.172Z,19.48
2023-03-02T20:27:13.163Z,19.13
2023-03-02T20:33:16.289Z,18.15
2023-03-02T20:39:31.585Z,22.48
2023-03-02T20:45:33.933Z,21.25
2023-03-02T20:51:39.740Z,19.80
2023-03-02T20:57:41.973Z,19.90
2023-03-02T21:03:47.629Z,19.23
2023-03-02T21:09:49.813Z,18.17
2023-03-02T21:15:52.140Z,17.27
2023-03-02T21:21:55.355Z,17.90
2023-03-02T21:27:58.100Z,16.35
2023-03-02T21:34:00.870Z,15.48
2023-03-02T21:40:03.150Z,16.55
2023-03-02T21:46:05.579Z,16.42
2023-03-02T21:52:08.115Z,14.48
2023-03-02T21:58:10.728Z,16.00
2023-03-02T22:04:12.728Z,15.10
2023-03-02T22:10:40.931Z,14.32
2023-03-02T22:16:47.485Z,13.65
2023-03-02T22:22:53.810Z,13.70
2023-03-02T22:29:03.387Z,13.02
2023-03-02T22:35:25.713Z,13.70
2023-03-02T22:41:27.748Z,12.43
2023-03-02T22:47:29.652Z,14.55
2023-03-02T22:53:35.484Z,15.13
2023-03-02T22:59:38.138Z,15.27
2023-03-02T23:05:40.217Z,15.00
2023-03-02T23:11:43.201Z,13.68
2023-03-02T23:17:47.215Z,14.43
2023-03-02T23:23:50.296Z,14.35
2023-03-02T23:29:53.528Z,13.43
2023-03-02T23:35:55.608Z,14.77
2023-03-02T23:41:57.525Z,13.23
2023-03-02T23:47:59.502Z,12.45
2023-03-02T23:54:04.179Z,12.05
